Appleton, NY

9:10 AM EDT on September 01, 2015 (GMT -0400)
Somerset | | Change Station
CLOSE
Current Station
Personal Weather Station
Location: Appleton, NY
Elevation: 318 ft
Nearby Weather Stations
Active Advisory: Special Statement

Elev 318 ft 43.33 °N, 78.63 °W | Updated 14 seconds ago

Mostly Cloudy
Mostly Cloudy
67.6 °F
Feels Like 67.6 °F
N
0.0
Wind Variable Wind from SSE
Gusts 1.0 mph

Today
High -- | Low -- °F
--% Chance of Precip.
Yesterday
High -- | Low -- °F
Precip. -- in
6:38 AM 7:50 PM
Waning Gibbous, 89% visible
Pressure 30.09 in
Visibility 0.2 miles
Clouds
Dew Point 67 °F
Humidity 100%
Rainfall 0.00 in
Snow Depth Not available.
UV Not available.
Pollen 10.50 out of 12
Air Quality Not available.
Flu Activity Not available.
SPECI KIAG 011304Z 00000KT 1/4SM R28R/1200V2000FT FG VV001 19/19 A3009 RMK AO2 T01940189
Pressure 30.09 in
Visibility 0.2 miles
Clouds
Dew Point 67 °F
Humidity 100%
Rainfall 0.00 in
Snow Depth Not available.
UV Not available.
Pollen 10.50 out of 12
Air Quality Not available.
Flu Activity Not available.
SPECI KIAG 011304Z 00000KT 1/4SM R28R/1200V2000FT FG VV001 19/19 A3009 RMK AO2 T01940189

10-Day Weather Forecast

×

Almanac

Astronomy

Sep. 01, 2015 Rise Set
Actual Time
Civil Twilight
Nautical Twilight
Astronomical Twilight
Moon
Length of Visible Light
Length of Day
Tomorrow will be .
, % of the Moon is Illuminated

Today's Extremes

State Highs State Lows

Community

WunderPhotos

Upload Photos

1,851,514 photos uploaded!

WunderBlogs® & News

Nearby

Air Quality

  Air Quality AQ Index Pollutant
Not available.

Snow Depth

Station Depth Elevation

Earthquake Activity

City Distance Mag. Time & Date
Minimum magnitude displayed is 2.5.

Coastal Water Temperatures

Place Temperature

Stations

Nearby Weather Stations

Station Location Temp. Windchill Dew Point Humidity Wind Precip. Elev Updated Type
                   
Special Statement
Statement as of 5:10 AM EDT on September 01, 2015

... Patchy dense fog across portions of the Niagara Frontier this
morning...

Patchy fog has developed across portions of the Niagara Frontier
this morning with area webcams indicating greatest reductions to
visibility across areas near the Niagara River. Motorists are
advised to exercise caution as visibilities may rapidly drop to
less than one quarter mile. Fog should dissipate by mid-morning.



510 am EDT Tue Sep 1 2015

... Patchy dense fog across portions of the Niagara Frontier this
morning...

Patchy fog has developed across portions of the Niagara Frontier
this morning with area webcams indicating greatest reductions to
visibility across areas near the Niagara River. Motorists are
advised to exercise caution as visibilities may rapidly drop to
less than one quarter mile. Fog should dissipate by mid-morning.